createdAt,value
2023-04-18T00:00:59.630Z,100071.06
2023-04-18T00:04:02.984Z,100073.81
2023-04-18T00:07:05.281Z,100081.22
2023-04-18T00:10:08.209Z,100067.69
2023-04-18T00:13:10.288Z,100075.50
2023-04-18T00:16:13.317Z,100078.00
2023-04-18T00:19:15.527Z,100086.59
2023-04-18T00:22:22.202Z,100079.88
2023-04-18T00:25:24.220Z,100077.63
2023-04-18T00:28:27.968Z,100082.53
2023-04-18T00:31:30.745Z,100083.97
2023-04-18T00:34:33.190Z,100086.62
2023-04-18T00:37:35.219Z,100090.88
2023-04-18T00:40:38.490Z,100083.50
2023-04-18T00:43:41.025Z,100093.88
2023-04-18T00:46:43.520Z,100089.72
2023-04-18T00:49:45.981Z,100083.81
2023-04-18T00:52:48.479Z,100082.41
2023-04-18T00:55:50.571Z,100083.97
2023-04-18T00:58:53.498Z,100088.63
2023-04-18T01:01:55.735Z,100090.28
2023-04-18T01:05:01.026Z,100085.25
2023-04-18T01:08:03.127Z,100079.41
2023-04-18T01:11:07.221Z,100080.72
2023-04-18T01:14:11.829Z,100075.94
2023-04-18T01:17:14.330Z,100081.56
2023-04-18T01:20:16.971Z,100083.34
2023-04-18T01:23:19.633Z,100086.91
2023-04-18T01:26:21.720Z,100090.53
2023-04-18T01:29:24.424Z,100091.00
2023-04-18T01:32:27.537Z,100085.75
2023-04-18T01:35:30.430Z,100085.97
2023-04-18T01:38:33.151Z,100084.44
2023-04-18T01:41:36.493Z,100090.28
2023-04-18T01:44:38.519Z,100086.84
2023-04-18T01:47:41.024Z,100090.41
2023-04-18T01:50:45.932Z,100085.63
2023-04-18T01:53:48.438Z,100080.72
2023-04-18T01:56:53.463Z,100080.97
2023-04-18T01:59:55.739Z,100085.16
2023-04-18T02:03:01.371Z,100084.69
2023-04-18T02:06:04.412Z,100088.97
2023-04-18T02:09:07.442Z,100090.53
2023-04-18T02:12:10.076Z,100094.94
2023-04-18T02:15:12.093Z,100100.81
2023-04-18T02:18:15.000Z,100095.69
2023-04-18T02:21:17.017Z,100100.47
2023-04-18T02:24:19.350Z,100093.88
2023-04-18T02:27:21.548Z,100095.81
2023-04-18T02:30:24.434Z,100097.22
2023-04-18T02:33:26.421Z,100097.94
2023-04-18T02:36:28.732Z,100095.91
2023-04-18T02:39:32.670Z,100094.13
2023-04-18T02:42:35.427Z,100100.47
2023-04-18T02:45:37.708Z,100095.19
2023-04-18T02:48:42.719Z,100105.97
2023-04-18T02:51:45.154Z,100104.41
2023-04-18T02:54:47.625Z,100109.34
2023-04-18T02:57:49.959Z,100110.88
2023-04-18T03:00:54.508Z,100108.13
2023-04-18T03:03:57.569Z,100112.91
2023-04-18T03:07:00.398Z,100110.25
2023-04-18T03:10:03.770Z,100110.12
2023-04-18T03:13:06.474Z,100115.75
2023-04-18T03:16:08.708Z,100109.78
2023-04-18T03:19:11.237Z,100115.88
2023-04-18T03:22:14.021Z,100116.94
2023-04-18T03:25:17.231Z,100123.38
2023-04-18T03:28:19.529Z,100124.87
2023-04-18T03:31:22.051Z,100120.16
2023-04-18T03:34:24.160Z,100124.72
2023-04-18T03:37:27.040Z,100113.53
2023-04-18T03:40:29.661Z,100121.50
2023-04-18T03:43:33.344Z,100122.03
2023-04-18T03:46:35.908Z,100117.31
2023-04-18T03:49:40.477Z,100113.09
2023-04-18T03:52:43.179Z,100117.75
2023-04-18T03:55:46.019Z,100123.06
2023-04-18T03:58:48.653Z,100128.53
2023-04-18T04:01:51.274Z,100123.00
2023-04-18T04:04:53.848Z,100128.91
2023-04-18T04:07:56.489Z,100121.75
2023-04-18T04:10:58.889Z,100131.41
2023-04-18T04:14:02.161Z,100127.22
2023-04-18T04:17:05.605Z,100130.06
2023-04-18T04:20:08.427Z,100129.94
2023-04-18T04:23:10.946Z,100134.81
2023-04-18T04:26:15.129Z,100137.22
2023-04-18T04:29:17.922Z,100140.69
2023-04-18T04:32:22.781Z,100143.81
2023-04-18T04:35:25.199Z,100151.94
2023-04-18T04:38:31.051Z,100142.50
2023-04-18T04:41:37.528Z,100148.63
2023-04-18T04:44:41.572Z,100157.78
2023-04-18T04:47:44.160Z,100154.56
2023-04-18T04:50:53.604Z,100157.06
2023-04-18T04:53:56.275Z,100164.81
2023-04-18T04:56:58.392Z,100162.97
2023-04-18T05:00:00.788Z,100171.47
2023-04-18T05:03:03.741Z,100168.84
2023-04-18T05:06:06.337Z,100168.22
2023-04-18T05:09:08.451Z,100170.34
2023-04-18T05:12:10.935Z,100162.97
2023-04-18T05:15:14.418Z,100172.66
2023-04-18T05:18:16.861Z,100172.37
2023-04-18T05:21:18.932Z,100175.50
2023-04-18T05:24:21.429Z,100177.41
2023-04-18T05:27:23.826Z,100172.03
2023-04-18T05:30:26.767Z,100183.78
2023-04-18T05:33:29.323Z,100175.75
2023-04-18T05:36:32.365Z,100186.44
2023-04-18T05:39:34.532Z,100183.25
2023-04-18T05:42:36.893Z,100187.09
2023-04-18T05:45:38.931Z,100191.06
2023-04-18T05:48:41.423Z,100191.69
2023-04-18T05:51:43.479Z,100187.75
2023-04-18T05:54:46.096Z,100186.41
2023-04-18T06:05:12.247Z,100196.19
2023-04-18T06:08:17.647Z,100192.44
2023-04-18T06:27:30.615Z,100212.00
2023-04-18T06:38:37.336Z,100220.22
2023-04-18T06:45:42.082Z,100212.78
2023-04-18T07:01:14.402Z,100228.38
2023-04-18T07:08:26.177Z,100235.31
2023-04-18T07:11:29.009Z,100236.41
2023-04-18T07:14:32.845Z,100239.22
2023-04-18T07:17:39.565Z,100237.78
2023-04-18T07:20:41.868Z,100237.94
2023-04-18T07:23:44.448Z,100242.66
2023-04-18T07:26:46.581Z,100243.31
2023-04-18T07:29:48.950Z,100242.03
2023-04-18T07:32:51.152Z,100242.88
2023-04-18T07:35:53.687Z,100245.31
2023-04-18T07:38:55.850Z,100246.56
2023-04-18T07:41:58.901Z,100245.16
2023-04-18T07:45:00.973Z,100251.09
2023-04-18T07:48:03.399Z,100247.91
2023-04-18T07:51:05.566Z,100253.31
2023-04-18T07:54:07.889Z,100261.28
2023-04-18T07:57:10.884Z,100259.59
2023-04-18T08:00:15.510Z,100265.72
2023-04-18T08:03:18.402Z,100259.53
2023-04-18T08:06:21.595Z,100253.22
2023-04-18T08:09:24.077Z,100264.53
2023-04-18T08:12:26.256Z,100265.75
2023-04-18T08:15:29.071Z,100268.50
2023-04-18T08:22:14.744Z,100269.72
2023-04-18T08:25:38.182Z,100273.34
2023-04-18T08:29:18.006Z,100279.84
2023-04-18T08:32:23.517Z,100273.00
2023-04-18T08:35:26.259Z,100276.50
2023-04-18T08:38:30.804Z,100281.13
2023-04-18T08:41:38.993Z,100280.75
2023-04-18T08:53:07.965Z,100281.78
2023-04-18T09:15:30.889Z,100280.66
2023-04-18T09:18:36.739Z,100274.16
2023-04-18T10:08:16.467Z,100269.88
2023-04-18T10:11:20.218Z,100280.97
2023-04-18T10:14:22.884Z,100274.31
2023-04-18T10:17:29.297Z,100270.66
2023-04-18T10:20:32.389Z,100276.31
2023-04-18T10:23:38.529Z,100276.50
2023-04-18T10:53:48.947Z,100266.34
2023-04-18T10:57:17.039Z,100258.72
2023-04-18T12:18:15.518Z,100256.03
2023-04-18T12:22:24.269Z,100260.91
2023-04-18T12:30:15.499Z,100251.56
2023-04-18T12:33:22.220Z,100240.34
2023-04-18T12:36:24.694Z,100244.37
2023-04-18T12:39:27.514Z,100246.22
2023-04-18T12:42:29.683Z,100247.37
2023-04-18T12:45:32.479Z,100251.53
2023-04-18T12:48:34.796Z,100256.38
2023-04-18T12:51:37.473Z,100251.03
2023-04-18T12:54:39.715Z,100250.87
2023-04-18T12:57:43.095Z,100246.31
2023-04-18T13:00:46.790Z,100247.97
2023-04-18T13:03:59.922Z,100244.31
2023-04-18T13:07:06.390Z,100248.59
2023-04-18T13:10:12.901Z,100243.38
2023-04-18T13:13:15.079Z,100249.47
2023-04-18T13:16:18.583Z,100253.31
2023-04-18T13:19:20.600Z,100251.44
2023-04-18T13:22:22.988Z,100259.59
2023-04-18T13:25:25.993Z,100251.88
2023-04-18T13:28:28.362Z,100252.38
2023-04-18T13:31:30.780Z,100258.41
2023-04-18T13:34:42.315Z,100249.84
2023-04-18T13:37:44.359Z,100245.19
2023-04-18T13:40:46.688Z,100246.87
2023-04-18T13:43:48.786Z,100244.44
2023-04-18T13:46:54.757Z,100242.25
2023-04-18T13:49:57.951Z,100248.53
2023-04-18T13:53:02.921Z,100243.13
2023-04-18T13:56:05.799Z,100252.59
2023-04-18T13:59:08.701Z,100248.50
2023-04-18T14:02:11.287Z,100256.22
2023-04-18T14:05:14.051Z,100255.22
2023-04-18T14:08:16.099Z,100248.53
2023-04-18T14:11:18.665Z,100244.28
2023-04-18T14:14:20.823Z,100249.56
2023-04-18T14:17:23.312Z,100249.50
2023-04-18T14:20:26.506Z,100243.56
2023-04-18T14:23:28.971Z,100239.44
2023-04-18T14:26:31.050Z,100234.19
2023-04-18T14:29:33.418Z,100238.94
2023-04-18T14:32:35.632Z,100238.66
2023-04-18T14:35:38.563Z,100241.16
2023-04-18T14:38:40.729Z,100235.47
2023-04-18T14:41:43.122Z,100239.94
2023-04-18T14:44:45.209Z,100235.22
2023-04-18T14:47:47.809Z,100245.41
2023-04-18T14:50:56.960Z,100241.25
2023-04-18T14:53:59.823Z,100244.94
2023-04-18T14:57:02.020Z,100241.75
2023-04-18T15:00:07.171Z,100242.38
2023-04-18T15:03:11.187Z,100239.28
2023-04-18T15:06:13.868Z,100246.87
2023-04-18T15:09:16.231Z,100243.91
2023-04-18T15:12:18.705Z,100239.22
2023-04-18T15:15:20.794Z,100238.25
2023-04-18T15:18:23.115Z,100236.19
2023-04-18T15:21:25.245Z,100229.59
2023-04-18T15:24:27.614Z,100234.91
2023-04-18T15:27:30.065Z,100238.00
2023-04-18T15:30:32.841Z,100232.16
2023-04-18T15:33:34.889Z,100234.19
2023-04-18T15:36:37.331Z,100235.81
2023-04-18T15:39:39.341Z,100229.19
2023-04-18T15:42:41.815Z,100236.84
2023-04-18T15:45:44.543Z,100235.88
2023-04-18T15:48:47.013Z,100244.91
2023-04-18T15:51:49.016Z,100247.59
2023-04-18T15:54:52.286Z,100246.22
2023-04-18T15:57:57.341Z,100241.34
2023-04-18T16:00:59.831Z,100245.59
2023-04-18T16:04:02.783Z,100241.84
2023-04-18T16:07:05.020Z,100249.56
2023-04-18T16:10:10.104Z,100253.41
2023-04-18T16:13:12.539Z,100252.91
2023-04-18T16:16:15.035Z,100251.28
2023-04-18T16:19:17.167Z,100258.72
2023-04-18T16:22:19.845Z,100257.75
2023-04-18T16:25:21.836Z,100260.97
2023-04-18T16:28:24.179Z,100261.28
2023-04-18T16:31:26.228Z,100263.34
2023-04-18T16:34:28.556Z,100257.91
2023-04-18T16:37:30.702Z,100260.19
2023-04-18T16:40:34.964Z,100265.47
2023-04-18T16:43:37.907Z,100260.91
2023-04-18T16:46:40.525Z,100253.38
2023-04-18T16:49:44.048Z,100262.16
2023-04-18T16:52:46.349Z,100264.25
2023-04-18T16:55:50.263Z,100262.97
2023-04-18T16:58:52.646Z,100264.78
2023-04-18T17:01:54.806Z,100273.16
2023-04-18T17:04:57.466Z,100271.06
2023-04-18T17:08:00.390Z,100268.53
2023-04-18T17:11:02.916Z,100279.69
2023-04-18T17:14:04.965Z,100274.00
2023-04-18T17:17:07.310Z,100275.09
2023-04-18T17:20:09.798Z,100271.88
2023-04-18T17:23:12.697Z,100267.53
2023-04-18T17:26:14.726Z,100279.78
2023-04-18T17:29:18.404Z,100282.94
2023-04-18T17:32:21.268Z,100283.75
2023-04-18T17:35:23.620Z,100281.34
2023-04-18T17:38:26.177Z,100284.94
2023-04-18T17:41:31.007Z,100285.25
2023-04-18T17:44:36.367Z,100284.16
2023-04-18T17:47:41.357Z,100294.09
2023-04-18T17:50:43.659Z,100295.84
2023-04-18T17:53:46.803Z,100295.78
2023-04-18T17:56:50.314Z,100291.22
2023-04-18T17:59:53.832Z,100306.84
2023-04-18T18:02:57.062Z,100300.66
2023-04-18T18:05:59.549Z,100301.28
2023-04-18T18:09:01.675Z,100306.38
2023-04-18T18:12:04.187Z,100314.19
2023-04-18T18:15:07.630Z,100307.03
2023-04-18T18:18:10.069Z,100316.00
2023-04-18T18:21:13.280Z,100309.44
2023-04-18T18:24:16.149Z,100315.19
2023-04-18T18:27:20.315Z,100317.50
2023-04-18T18:30:22.803Z,100314.25
2023-04-18T18:33:24.940Z,100319.78
2023-04-18T18:36:27.730Z,100319.78
2023-04-18T18:39:29.931Z,100317.00
2023-04-18T18:42:32.406Z,100317.97
2023-04-18T18:45:34.513Z,100320.62
2023-04-18T18:48:38.247Z,100319.88
2023-04-18T18:51:41.423Z,100327.56
2023-04-18T18:54:43.853Z,100320.62
2023-04-18T18:57:46.661Z,100329.13
2023-04-18T19:00:49.330Z,100327.19
2023-04-18T19:03:51.691Z,100324.06
2023-04-18T19:06:54.219Z,100326.25
2023-04-18T19:09:56.430Z,100333.78
2023-04-18T19:13:00.340Z,100339.56
2023-04-18T19:16:03.664Z,100339.31
2023-04-18T19:19:06.246Z,100344.81
2023-04-18T19:22:08.676Z,100355.59
2023-04-18T19:25:11.267Z,100362.19
2023-04-18T19:28:14.644Z,100377.78
2023-04-18T19:31:17.104Z,100373.78
2023-04-18T19:34:19.197Z,100377.97
2023-04-18T19:37:21.634Z,100376.88
2023-04-18T19:40:26.680Z,100376.59
2023-04-18T19:43:29.266Z,100380.91
2023-04-18T19:46:31.527Z,100381.28
2023-04-18T19:49:34.190Z,100386.03
2023-04-18T19:52:36.412Z,100387.16
2023-04-18T19:55:39.082Z,100392.66
2023-04-18T19:58:46.211Z,100394.22
2023-04-18T20:01:48.741Z,100391.59
2023-04-18T20:04:51.370Z,100383.56
2023-04-18T20:07:53.621Z,100385.47
2023-04-18T20:10:56.528Z,100393.53
2023-04-18T20:13:58.628Z,100391.84
2023-04-18T20:17:02.150Z,100393.72
2023-04-18T20:20:04.673Z,100404.19
2023-04-18T20:23:07.453Z,100397.34
2023-04-18T20:26:09.561Z,100402.25
2023-04-18T20:29:12.424Z,100398.66
2023-04-18T20:32:14.768Z,100390.16
2023-04-18T20:35:17.405Z,100391.94
2023-04-18T20:38:20.196Z,100390.91
2023-04-18T20:41:24.234Z,100396.03
2023-04-18T20:44:26.497Z,100393.53
2023-04-18T20:47:29.127Z,100392.66
2023-04-18T20:50:31.761Z,100394.38
2023-04-18T20:53:34.317Z,100393.53
2023-04-18T20:56:37.000Z,100384.22
2023-04-18T20:59:39.522Z,100390.28
2023-04-18T21:02:41.750Z,100389.59
2023-04-18T21:05:45.011Z,100398.25
2023-04-18T21:08:47.227Z,100395.03
2023-04-18T21:11:49.771Z,100392.28
2023-04-18T21:14:51.967Z,100391.78
2023-04-18T21:17:54.710Z,100383.91
2023-04-18T21:20:56.895Z,100390.97
2023-04-18T21:23:59.676Z,100389.91
2023-04-18T21:27:02.502Z,100394.22
2023-04-18T21:30:05.579Z,100385.09
2023-04-18T21:33:07.784Z,100384.50
2023-04-18T21:36:10.333Z,100386.75
2023-04-18T21:39:12.577Z,100379.22
2023-04-18T21:42:15.017Z,100381.97
2023-04-18T21:45:17.713Z,100372.28
2023-04-18T21:48:20.285Z,100381.72
2023-04-18T21:51:22.577Z,100379.47
2023-04-18T21:54:25.416Z,100376.84
2023-04-18T21:57:27.492Z,100376.34
2023-04-18T22:00:30.128Z,100378.25
2023-04-18T22:03:34.111Z,100380.53
2023-04-18T22:06:36.544Z,100380.69
2023-04-18T22:09:39.062Z,100374.19
2023-04-18T22:12:42.580Z,100370.22
2023-04-18T22:15:45.144Z,100371.44
2023-04-18T22:18:48.924Z,100366.03
2023-04-18T22:21:51.592Z,100367.00
2023-04-18T22:24:53.904Z,100367.84
2023-04-18T22:27:56.528Z,100371.91
2023-04-18T22:30:59.980Z,100367.00
2023-04-18T22:34:02.707Z,100362.81
2023-04-18T22:37:05.066Z,100358.59
2023-04-18T22:40:09.670Z,100350.22
2023-04-18T22:43:11.884Z,100356.56
2023-04-18T22:46:14.609Z,100347.69
2023-04-18T22:49:18.029Z,100357.44
2023-04-18T22:52:23.789Z,100349.13
2023-04-18T22:55:25.925Z,100347.34
2023-04-18T22:58:28.427Z,100340.50
2023-04-18T23:01:30.830Z,100329.34
2023-04-18T23:04:33.682Z,100334.50
2023-04-18T23:07:35.865Z,100328.28
2023-04-18T23:10:38.766Z,100328.28
2023-04-18T23:13:40.995Z,100322.16
2023-04-18T23:16:43.910Z,100315.47
2023-04-18T23:19:46.158Z,100317.88
2023-04-18T23:22:51.574Z,100313.66
2023-04-18T23:25:53.989Z,100308.84
2023-04-18T23:28:56.582Z,100310.31
2023-04-18T23:31:58.742Z,100300.94
2023-04-18T23:35:04.372Z,100299.03
2023-04-18T23:38:06.858Z,100297.09
2023-04-18T23:41:09.605Z,100287.75
2023-04-18T23:44:11.739Z,100287.41
2023-04-18T23:47:14.393Z,100285.44
2023-04-18T23:50:16.660Z,100280.06
2023-04-18T23:53:20.069Z,100276.84
2023-04-18T23:56:23.249Z,100276.03
2023-04-18T23:59:25.902Z,100273.97
